createdAt,value
2017-08-25T00:01:23.953Z,101439
2017-08-25T00:03:52.153Z,101444
2017-08-25T00:06:20.322Z,101437
2017-08-25T00:08:48.479Z,101436
2017-08-25T00:11:17.002Z,101438
2017-08-25T00:13:45.149Z,101439
2017-08-25T00:16:13.299Z,101438
2017-08-25T00:18:41.479Z,101440
2017-08-25T00:21:09.651Z,101442
2017-08-25T00:23:37.813Z,101445
2017-08-25T00:26:06.755Z,101448
2017-08-25T00:28:34.907Z,101451
2017-08-25T00:31:03.084Z,101457
2017-08-25T00:33:31.291Z,101447
2017-08-25T00:35:59.464Z,101456
2017-08-25T00:38:27.613Z,101453
2017-08-25T00:40:55.813Z,101450
2017-08-25T00:43:23.985Z,101449
2017-08-25T00:45:52.133Z,101445
2017-08-25T00:48:20.341Z,101453
2017-08-25T00:50:49.316Z,101454
2017-08-25T00:53:17.483Z,101446
2017-08-25T00:55:45.654Z,101449
2017-08-25T00:58:13.799Z,101449
2017-08-25T01:00:41.946Z,101454
2017-08-25T01:03:10.136Z,101454
2017-08-25T01:05:38.283Z,101450
2017-08-25T01:08:06.434Z,101455
2017-08-25T01:10:34.607Z,101452
2017-08-25T01:13:02.774Z,101448
2017-08-25T01:15:30.945Z,101451
2017-08-25T01:17:59.115Z,101451
2017-08-25T01:20:27.266Z,101450
2017-08-25T01:22:55.425Z,101469
2017-08-25T01:25:24.402Z,101456
2017-08-25T01:27:52.569Z,101451
2017-08-25T01:30:20.715Z,101460
2017-08-25T01:32:48.916Z,101467
2017-08-25T01:35:17.067Z,101452
2017-08-25T01:37:45.225Z,101455
2017-08-25T01:40:13.407Z,101459
2017-08-25T01:42:41.563Z,101460
2017-08-25T01:45:09.745Z,101459
2017-08-25T01:47:37.953Z,101455
2017-08-25T01:50:06.122Z,101453
2017-08-25T01:52:34.298Z,101456
2017-08-25T01:55:02.472Z,101462
2017-08-25T01:57:30.952Z,101463
2017-08-25T01:59:59.099Z,101454
2017-08-25T02:02:27.298Z,101458
2017-08-25T02:04:55.465Z,101456
2017-08-25T02:07:23.632Z,101459
2017-08-25T02:09:51.829Z,101454
2017-08-25T02:12:19.993Z,101454
2017-08-25T02:14:48.141Z,101456
2017-08-25T02:17:16.310Z,101453
2017-08-25T02:19:44.476Z,101456
2017-08-25T02:22:12.644Z,101449
2017-08-25T02:24:40.841Z,101444
2017-08-25T02:27:09.755Z,101454
2017-08-25T02:29:37.914Z,101458
2017-08-25T02:32:06.085Z,101453
2017-08-25T02:34:34.250Z,101456
2017-08-25T02:37:02.427Z,101461
2017-08-25T02:39:30.617Z,101452
2017-08-25T02:41:58.802Z,101448
2017-08-25T02:44:27.298Z,101438
2017-08-25T02:46:55.475Z,101440
2017-08-25T02:49:23.628Z,101437
2017-08-25T02:51:51.781Z,101442
2017-08-25T02:54:19.955Z,101439
2017-08-25T02:56:48.106Z,101441
2017-08-25T02:59:16.259Z,101439
2017-08-25T03:01:44.444Z,101443
2017-08-25T03:04:12.586Z,101439
2017-08-25T03:06:40.730Z,101444
2017-08-25T03:09:08.927Z,101434
2017-08-25T03:11:37.072Z,101439
2017-08-25T03:14:05.242Z,101433
2017-08-25T03:16:33.429Z,101433
2017-08-25T03:19:01.593Z,101445
2017-08-25T03:21:29.746Z,101443
2017-08-25T03:23:57.945Z,101439
2017-08-25T03:26:26.090Z,101432
2017-08-25T03:28:54.246Z,101435
2017-08-25T03:31:22.423Z,101435
2017-08-25T03:33:50.572Z,101441
2017-08-25T03:36:18.720Z,101444
2017-08-25T03:38:46.908Z,101440
2017-08-25T03:41:15.082Z,101438
2017-08-25T03:43:43.265Z,101444
2017-08-25T03:46:11.436Z,101445
2017-08-25T03:48:39.599Z,101444
2017-08-25T03:51:07.762Z,101444
2017-08-25T03:53:35.940Z,101442
2017-08-25T03:56:04.090Z,101444
2017-08-25T03:58:32.246Z,101452
2017-08-25T04:01:00.445Z,101456
2017-08-25T04:03:28.595Z,101455
2017-08-25T04:05:56.757Z,101462
2017-08-25T04:08:25.338Z,101447
2017-08-25T04:10:53.497Z,101456
2017-08-25T04:13:21.638Z,101452
2017-08-25T04:15:49.831Z,101447
2017-08-25T04:18:17.979Z,101451
2017-08-25T04:20:46.146Z,101447
2017-08-25T04:23:14.322Z,101445
2017-08-25T04:25:42.485Z,101450
2017-08-25T04:28:10.634Z,101451
2017-08-25T04:30:38.825Z,101456
2017-08-25T04:33:06.990Z,101453
2017-08-25T04:35:35.172Z,101453
2017-08-25T04:38:03.365Z,101458
2017-08-25T04:40:31.509Z,101466
2017-08-25T04:42:59.659Z,101463
2017-08-25T04:45:27.848Z,101457
2017-08-25T04:47:56.004Z,101465
2017-08-25T04:50:24.163Z,101462
2017-08-25T04:52:52.361Z,101459
2017-08-25T04:55:20.507Z,101471
2017-08-25T04:57:48.651Z,101473
2017-08-25T05:00:16.841Z,101481
2017-08-25T05:02:45.005Z,101477
2017-08-25T05:05:13.155Z,101475
2017-08-25T05:07:41.362Z,101490
2017-08-25T05:10:09.539Z,101478
2017-08-25T05:12:37.697Z,101481
2017-08-25T05:15:05.879Z,101478
2017-08-25T05:17:34.815Z,101486
2017-08-25T05:20:02.962Z,101490
2017-08-25T05:22:31.160Z,101490
2017-08-25T05:24:59.324Z,101493
2017-08-25T05:27:27.475Z,101491
2017-08-25T05:29:55.688Z,101484
2017-08-25T05:32:23.834Z,101495
2017-08-25T05:34:51.987Z,101499
2017-08-25T05:37:20.180Z,101502
2017-08-25T05:39:48.349Z,101494
2017-08-25T05:42:16.495Z,101494
2017-08-25T05:44:44.675Z,101492
2017-08-25T05:47:12.818Z,101488
2017-08-25T05:49:40.971Z,101489
2017-08-25T05:52:09.151Z,101485
2017-08-25T05:54:37.321Z,101473
2017-08-25T05:57:05.503Z,101483
2017-08-25T05:59:34.446Z,101483
2017-08-25T06:02:02.605Z,101486
2017-08-25T06:04:30.770Z,101489
2017-08-25T06:06:58.947Z,101486
2017-08-25T06:09:27.099Z,101489
2017-08-25T06:11:55.441Z,101486
2017-08-25T06:14:23.617Z,101499
2017-08-25T06:16:51.788Z,101509
2017-08-25T06:19:19.940Z,101506
2017-08-25T06:21:48.136Z,101504
2017-08-25T06:24:16.303Z,101505
2017-08-25T06:26:44.469Z,101508
2017-08-25T06:29:12.661Z,101510
2017-08-25T06:31:40.842Z,101514
2017-08-25T06:34:08.994Z,101506
2017-08-25T06:36:37.170Z,101512
2017-08-25T06:39:05.323Z,101514
2017-08-25T06:41:33.501Z,101515
2017-08-25T06:44:01.692Z,101506
2017-08-25T06:46:29.845Z,101510
2017-08-25T06:48:58.014Z,101507
2017-08-25T06:51:26.192Z,101506
2017-08-25T06:53:54.364Z,101517
2017-08-25T06:56:22.511Z,101504
2017-08-25T06:58:50.687Z,101522
2017-08-25T07:01:18.835Z,101518
2017-08-25T07:03:47.001Z,101518
2017-08-25T07:06:15.171Z,101527
2017-08-25T07:08:43.443Z,101533
2017-08-25T07:11:11.613Z,101537
2017-08-25T07:13:39.813Z,101528
2017-08-25T07:16:07.958Z,101531
2017-08-25T07:18:36.123Z,101538
2017-08-25T07:21:04.325Z,101538
2017-08-25T07:23:32.470Z,101532
2017-08-25T07:26:00.641Z,101540
2017-08-25T07:28:28.834Z,101536
2017-08-25T07:30:57.008Z,101541
2017-08-25T07:33:25.154Z,101542
2017-08-25T07:35:53.358Z,101540
2017-08-25T07:38:21.523Z,101546
2017-08-25T07:40:49.688Z,101543
2017-08-25T07:43:17.863Z,101554
2017-08-25T07:45:46.029Z,101535
2017-08-25T07:48:14.197Z,101557
2017-08-25T07:50:42.366Z,101553
2017-08-25T07:53:11.278Z,101564
2017-08-25T07:55:39.427Z,101573
2017-08-25T07:58:07.602Z,101567
2017-08-25T08:00:35.765Z,101569
2017-08-25T08:03:03.916Z,101570
2017-08-25T08:05:32.113Z,101577
2017-08-25T08:08:00.260Z,101572
2017-08-25T08:10:28.417Z,101584
2017-08-25T08:12:56.612Z,101577
2017-08-25T08:15:24.785Z,101578
2017-08-25T08:17:52.941Z,101583
2017-08-25T08:20:21.142Z,101583
2017-08-25T08:22:49.321Z,101578
2017-08-25T08:25:17.471Z,101579
2017-08-25T08:27:45.663Z,101581
2017-08-25T08:30:13.832Z,101577
2017-08-25T08:32:42.014Z,101583
2017-08-25T08:35:10.208Z,101575
2017-08-25T08:37:38.382Z,101574
2017-08-25T08:40:06.551Z,101581
2017-08-25T08:42:34.734Z,101587
2017-08-25T08:45:02.887Z,101586
2017-08-25T08:47:31.045Z,101585
2017-08-25T08:49:59.227Z,101584
2017-08-25T08:52:27.396Z,101579
2017-08-25T08:54:55.542Z,101583
2017-08-25T08:57:23.742Z,101603
2017-08-25T08:59:51.911Z,101606
2017-08-25T09:02:20.058Z,101607
2017-08-25T09:04:48.242Z,101595
2017-08-25T09:07:16.388Z,101599
2017-08-25T09:09:44.569Z,101600
2017-08-25T09:12:12.783Z,101606
2017-08-25T09:14:40.955Z,101619
2017-08-25T09:17:09.133Z,101619
2017-08-25T09:19:37.330Z,101609
2017-08-25T09:22:05.508Z,101608
2017-08-25T09:24:33.670Z,101605
2017-08-25T09:27:01.869Z,101613
2017-08-25T09:29:30.045Z,101620
2017-08-25T09:31:58.213Z,101619
2017-08-25T09:34:26.401Z,101615
2017-08-25T09:36:55.347Z,101624
2017-08-25T09:39:23.524Z,101621
2017-08-25T09:41:51.722Z,101624
2017-08-25T09:44:19.873Z,101619
2017-08-25T09:46:48.038Z,101635
2017-08-25T09:49:16.234Z,101633
2017-08-25T09:51:44.393Z,101631
2017-08-25T09:54:12.556Z,101634
2017-08-25T09:56:40.750Z,101638
2017-08-25T09:59:08.918Z,101642
2017-08-25T10:01:37.066Z,101640
2017-08-25T10:04:05.235Z,101624
2017-08-25T10:06:33.470Z,101622
2017-08-25T10:09:01.638Z,101615
2017-08-25T10:11:29.824Z,101622
2017-08-25T10:13:57.986Z,101616
2017-08-25T10:16:26.172Z,101627
2017-08-25T10:18:54.354Z,101628
2017-08-25T10:21:22.529Z,101630
2017-08-25T10:23:50.676Z,101637
2017-08-25T10:26:18.909Z,101642
2017-08-25T10:28:47.057Z,101646
2017-08-25T10:31:15.220Z,101638
2017-08-25T10:33:46.928Z,101635
2017-08-25T10:39:46.095Z,101620
2017-08-25T10:45:18.289Z,101614
2017-08-25T10:47:46.433Z,101615
2017-08-25T10:50:14.598Z,101619
2017-08-25T10:52:42.783Z,101612
2017-08-25T10:55:10.949Z,101616
2017-08-25T10:57:39.137Z,101597
2017-08-25T11:00:07.314Z,101596
2017-08-25T11:02:35.469Z,101597
2017-08-25T11:05:03.638Z,101599
2017-08-25T11:07:31.826Z,101595
2017-08-25T11:09:59.985Z,101603
2017-08-25T11:12:28.144Z,101597
2017-08-25T11:14:56.334Z,101595
2017-08-25T11:17:24.482Z,101601
2017-08-25T11:19:52.649Z,101604
2017-08-25T11:22:20.842Z,101600
2017-08-25T11:24:48.985Z,101615
2017-08-25T11:27:17.125Z,101615
2017-08-25T11:29:45.300Z,101632
2017-08-25T11:32:13.464Z,101631
2017-08-25T11:34:41.611Z,101629
2017-08-25T11:37:09.805Z,101632
2017-08-25T11:39:37.951Z,101633
2017-08-25T11:42:06.099Z,101635
2017-08-25T11:44:34.267Z,101635
2017-08-25T11:47:02.415Z,101639
2017-08-25T11:49:30.559Z,101640
2017-08-25T11:51:58.748Z,101639
2017-08-25T11:54:26.909Z,101644
2017-08-25T11:56:55.070Z,101636
2017-08-25T11:59:23.286Z,101635
2017-08-25T12:01:51.458Z,101639
2017-08-25T12:04:19.607Z,101633
2017-08-25T12:06:47.778Z,101628
2017-08-25T12:09:15.946Z,101633
2017-08-25T12:11:44.112Z,101648
2017-08-25T12:14:12.291Z,101640
2017-08-25T12:16:41.202Z,101652
2017-08-25T12:19:09.349Z,101641
2017-08-25T12:21:38.313Z,101641
2017-08-25T12:24:06.479Z,101642
2017-08-25T12:26:34.629Z,101624
2017-08-25T12:29:02.822Z,101623
2017-08-25T12:31:30.967Z,101623
2017-08-25T12:33:59.129Z,101625
2017-08-25T12:36:27.321Z,101624
2017-08-25T12:38:55.505Z,101632
2017-08-25T12:41:24.014Z,101633
2017-08-25T12:43:52.188Z,101622
2017-08-25T12:46:20.333Z,101632
2017-08-25T12:48:48.476Z,101630
2017-08-25T12:51:16.659Z,101635
2017-08-25T12:53:44.810Z,101636
2017-08-25T12:56:12.963Z,101639
2017-08-25T12:58:41.949Z,101645
2017-08-25T13:01:10.102Z,101645
2017-08-25T13:03:38.290Z,101641
2017-08-25T13:06:06.489Z,101646
2017-08-25T13:08:34.630Z,101632
2017-08-25T13:11:02.773Z,101634
2017-08-25T13:13:30.969Z,101645
2017-08-25T13:15:59.133Z,101640
2017-08-25T13:18:27.329Z,101640
2017-08-25T13:20:55.517Z,101642
2017-08-25T13:23:23.668Z,101636
2017-08-25T13:25:51.821Z,101633
2017-08-25T13:28:20.015Z,101638
2017-08-25T13:30:48.188Z,101637
2017-08-25T13:33:16.351Z,101629
2017-08-25T13:35:44.654Z,101630
2017-08-25T13:38:12.830Z,101639
2017-08-25T13:40:41.003Z,101641
2017-08-25T13:43:09.182Z,101634
2017-08-25T13:45:37.328Z,101628
2017-08-25T13:48:05.498Z,101640
2017-08-25T13:50:33.712Z,101637
2017-08-25T13:53:01.863Z,101641
2017-08-25T13:55:30.010Z,101637
2017-08-25T13:57:58.190Z,101644
2017-08-25T14:00:26.366Z,101648
2017-08-25T14:02:55.137Z,101650
2017-08-25T14:05:23.778Z,101648
2017-08-25T14:07:51.950Z,101646
2017-08-25T14:10:34.283Z,101653
2017-08-25T14:13:02.467Z,101646
2017-08-25T14:15:30.647Z,101652
2017-08-25T14:17:58.818Z,101652
2017-08-25T14:20:27.909Z,101640
2017-08-25T14:22:56.090Z,101641
2017-08-25T14:25:25.033Z,101646
2017-08-25T14:27:53.234Z,101648
2017-08-25T14:30:21.418Z,101657
2017-08-25T14:32:49.570Z,101658
2017-08-25T14:35:17.724Z,101654
2017-08-25T14:37:45.909Z,101650
2017-08-25T14:40:14.081Z,101651
2017-08-25T14:42:42.258Z,101655
2017-08-25T14:45:10.474Z,101649
2017-08-25T14:47:38.647Z,101644
2017-08-25T14:50:06.821Z,101650
2017-08-25T14:52:35.017Z,101641
2017-08-25T14:55:03.191Z,101655
2017-08-25T14:57:31.346Z,101649
2017-08-25T14:59:59.535Z,101656
2017-08-25T15:02:28.479Z,101661
2017-08-25T15:04:56.664Z,101654
2017-08-25T15:07:24.883Z,101648
2017-08-25T15:09:53.804Z,101651
2017-08-25T15:12:21.978Z,101652
2017-08-25T15:14:50.157Z,101652
2017-08-25T15:17:18.308Z,101646
2017-08-25T15:19:46.479Z,101641
2017-08-25T15:22:14.692Z,101652
2017-08-25T15:24:42.861Z,101638
2017-08-25T15:27:11.016Z,101644
2017-08-25T15:29:39.191Z,101650
2017-08-25T15:32:07.361Z,101650
2017-08-25T15:34:35.516Z,101649
2017-08-25T15:37:04.471Z,101648
2017-08-25T15:39:32.620Z,101649
2017-08-25T15:42:00.771Z,101652
2017-08-25T15:44:28.966Z,101652
2017-08-25T15:46:57.120Z,101649
2017-08-25T15:49:25.279Z,101651
2017-08-25T15:51:53.464Z,101652
2017-08-25T15:54:21.641Z,101642
2017-08-25T15:56:50.615Z,101648
2017-08-25T15:59:18.784Z,101650
2017-08-25T16:01:46.953Z,101644
2017-08-25T16:04:15.122Z,101640
2017-08-25T16:06:43.308Z,101642
2017-08-25T16:09:11.474Z,101637
2017-08-25T16:11:39.623Z,101641
2017-08-25T16:14:07.807Z,101639
2017-08-25T16:16:35.954Z,101631
2017-08-25T16:19:04.125Z,101633
2017-08-25T16:21:32.301Z,101627
2017-08-25T16:24:00.446Z,101629
2017-08-25T16:26:28.590Z,101626
2017-08-25T16:28:56.758Z,101633
2017-08-25T16:31:24.918Z,101626
2017-08-25T16:33:53.091Z,101630
2017-08-25T16:36:21.280Z,101628
2017-08-25T16:38:49.421Z,101624
2017-08-25T16:41:17.572Z,101625
2017-08-25T16:43:45.774Z,101620
2017-08-25T16:46:13.930Z,101622
2017-08-25T16:48:42.096Z,101631
2017-08-25T16:51:10.269Z,101630
2017-08-25T16:53:39.199Z,101623
2017-08-25T16:56:07.366Z,101619
2017-08-25T16:58:35.546Z,101619
2017-08-25T17:01:03.714Z,101624
2017-08-25T17:03:31.855Z,101618
2017-08-25T17:06:00.042Z,101617
2017-08-25T17:08:28.958Z,101620
2017-08-25T17:10:57.131Z,101618
2017-08-25T17:13:25.322Z,101620
2017-08-25T17:15:53.491Z,101623
2017-08-25T17:18:21.656Z,101619
2017-08-25T17:20:49.848Z,101621
2017-08-25T17:23:17.994Z,101625
2017-08-25T17:25:46.142Z,101621
2017-08-25T17:28:14.314Z,101622
2017-08-25T17:30:42.481Z,101616
2017-08-25T17:33:10.655Z,101619
2017-08-25T17:35:38.854Z,101615
2017-08-25T17:38:07.023Z,101635
2017-08-25T17:40:35.935Z,101623
2017-08-25T17:43:04.136Z,101627
2017-08-25T17:45:32.296Z,101624
2017-08-25T17:48:00.448Z,101632
2017-08-25T17:50:29.343Z,101627
2017-08-25T17:52:57.522Z,101625
2017-08-25T17:55:25.690Z,101638
2017-08-25T17:57:53.867Z,101626
2017-08-25T18:00:22.037Z,101634
2017-08-25T18:02:50.202Z,101630
2017-08-25T18:05:18.388Z,101639
2017-08-25T18:07:46.530Z,101639
2017-08-25T18:10:14.697Z,101636
2017-08-25T18:12:42.877Z,101632
2017-08-25T18:15:11.023Z,101648
2017-08-25T18:17:39.188Z,101645
2017-08-25T18:20:07.376Z,101649
2017-08-25T18:22:35.544Z,101649
2017-08-25T18:25:03.713Z,101656
2017-08-25T18:27:31.890Z,101648
2017-08-25T18:30:00.058Z,101647
2017-08-25T18:32:28.206Z,101654
2017-08-25T18:34:56.408Z,101649
2017-08-25T18:37:24.587Z,101656
2017-08-25T18:39:52.750Z,101659
2017-08-25T18:42:20.952Z,101660
2017-08-25T18:44:49.102Z,101659
2017-08-25T18:47:17.269Z,101665
2017-08-25T18:49:45.454Z,101666
2017-08-25T18:52:13.627Z,101658
2017-08-25T18:54:41.804Z,101664
2017-08-25T18:57:09.997Z,101665
2017-08-25T18:59:38.161Z,101659
2017-08-25T19:02:06.326Z,101669
2017-08-25T19:04:34.498Z,101665
2017-08-25T19:07:02.640Z,101665
2017-08-25T19:09:31.558Z,101674
2017-08-25T19:12:00.516Z,101675
2017-08-25T19:14:28.728Z,101671
2017-08-25T19:16:56.879Z,101667
2017-08-25T19:19:25.062Z,101668
2017-08-25T19:21:53.208Z,101664
2017-08-25T19:24:21.358Z,101660
2017-08-25T19:26:49.670Z,101667
2017-08-25T19:29:17.832Z,101659
2017-08-25T19:31:46.004Z,101663
2017-08-25T19:34:14.203Z,101663
2017-08-25T19:36:42.367Z,101664
2017-08-25T19:39:10.513Z,101662
2017-08-25T19:41:38.694Z,101661
2017-08-25T19:44:06.850Z,101661
2017-08-25T19:46:35.021Z,101650
2017-08-25T19:49:03.223Z,101651
2017-08-25T19:51:31.389Z,101651
2017-08-25T19:53:59.613Z,101649
2017-08-25T19:56:27.810Z,101653
2017-08-25T19:58:55.967Z,101653
2017-08-25T20:01:24.139Z,101651
2017-08-25T20:03:52.312Z,101655
2017-08-25T20:06:20.464Z,101657
2017-08-25T20:08:48.634Z,101668
2017-08-25T20:11:16.824Z,101660
2017-08-25T20:13:44.979Z,101674
2017-08-25T20:16:13.151Z,101670
2017-08-25T20:18:41.338Z,101672
2017-08-25T20:21:09.490Z,101667
2017-08-25T20:23:37.670Z,101676
2017-08-25T20:26:05.880Z,101667
2017-08-25T20:28:34.055Z,101674
2017-08-25T20:31:02.234Z,101671
2017-08-25T20:33:30.443Z,101674
2017-08-25T20:35:58.628Z,101667
2017-08-25T20:38:26.788Z,101672
2017-08-25T20:40:54.967Z,101666
2017-08-25T20:43:23.898Z,101669
2017-08-25T20:45:52.050Z,101673
2017-08-25T20:48:20.240Z,101673
2017-08-25T20:50:48.423Z,101672
2017-08-25T20:53:16.594Z,101669
2017-08-25T20:55:44.776Z,101677
2017-08-25T20:58:12.922Z,101683
2017-08-25T21:00:41.095Z,101679
2017-08-25T21:03:09.305Z,101682
2017-08-25T21:05:37.482Z,101669
2017-08-25T21:08:05.638Z,101673
2017-08-25T21:10:33.814Z,101682
2017-08-25T21:13:01.986Z,101675
2017-08-25T21:15:30.161Z,101664
2017-08-25T21:17:58.338Z,101662
2017-08-25T21:20:26.491Z,101666
2017-08-25T21:22:54.662Z,101677
2017-08-25T21:25:22.847Z,101673
2017-08-25T21:27:51.021Z,101676
2017-08-25T21:30:20.362Z,101682
2017-08-25T21:32:48.546Z,101676
2017-08-25T21:35:16.718Z,101679
2017-08-25T21:37:44.871Z,101673
2017-08-25T21:40:13.069Z,101674
2017-08-25T21:42:41.237Z,101672
2017-08-25T21:45:09.408Z,101679
2017-08-25T21:47:37.582Z,101677
2017-08-25T21:50:05.753Z,101681
2017-08-25T21:52:33.925Z,101682
2017-08-25T21:55:02.129Z,101687
2017-08-25T21:57:30.314Z,101684
2017-08-25T21:59:58.492Z,101678
2017-08-25T22:02:26.670Z,101685
2017-08-25T22:04:54.844Z,101683
2017-08-25T22:07:23.007Z,101682
2017-08-25T22:09:51.230Z,101686
2017-08-25T22:12:19.397Z,101683
2017-08-25T22:14:47.554Z,101680
2017-08-25T22:17:15.733Z,101684
2017-08-25T22:19:43.900Z,101687
2017-08-25T22:22:12.069Z,101679
2017-08-25T22:24:40.273Z,101683
2017-08-25T22:27:08.423Z,101680
2017-08-25T22:29:36.594Z,101682
2017-08-25T22:32:04.789Z,101683
2017-08-25T22:34:32.959Z,101681
2017-08-25T22:37:01.136Z,101681
2017-08-25T22:39:29.334Z,101677
2017-08-25T22:41:57.498Z,101677
2017-08-25T22:44:25.684Z,101677
2017-08-25T22:46:53.881Z,101682
2017-08-25T22:49:22.046Z,101680
2017-08-25T22:51:50.194Z,101681
2017-08-25T22:54:18.394Z,101674
2017-08-25T22:56:46.570Z,101674
2017-08-25T22:59:14.746Z,101672
2017-08-25T23:01:42.959Z,101674
2017-08-25T23:04:11.122Z,101668
2017-08-25T23:06:39.348Z,101670
2017-08-25T23:09:07.549Z,101674
2017-08-25T23:11:35.705Z,101682
2017-08-25T23:14:03.859Z,101682
2017-08-25T23:16:32.114Z,101673
2017-08-25T23:19:00.296Z,101679
2017-08-25T23:21:28.509Z,101670
2017-08-25T23:23:56.704Z,101673
2017-08-25T23:26:24.859Z,101665
2017-08-25T23:28:53.032Z,101662
2017-08-25T23:31:21.207Z,101662
2017-08-25T23:33:49.364Z,101661
2017-08-25T23:36:17.519Z,101666
2017-08-25T23:38:45.703Z,101658
2017-08-25T23:41:13.873Z,101653
2017-08-25T23:43:42.031Z,101646
2017-08-25T23:46:10.242Z,101647
2017-08-25T23:48:38.430Z,101641
2017-08-25T23:51:06.583Z,101634
2017-08-25T23:53:34.769Z,101637
2017-08-25T23:56:02.937Z,101634
2017-08-25T23:58:31.109Z,101630
